createdAt,value
2023-10-25T00:00:48.302Z,99349.94
2023-10-25T00:03:17.618Z,99347.59
2023-10-25T00:05:48.827Z,99349.88
2023-10-25T00:08:17.254Z,99346.22
2023-10-25T00:10:47.179Z,99350.53
2023-10-25T00:13:15.601Z,99348.56
2023-10-25T00:15:44.433Z,99345.41
2023-10-25T00:18:13.473Z,99341.19
2023-10-25T00:20:41.970Z,99341.19
2023-10-25T00:23:10.513Z,99341.88
2023-10-25T00:25:39.046Z,99350.19
2023-10-25T00:28:08.937Z,99353.69
2023-10-25T00:30:37.713Z,99357.34
2023-10-25T00:33:06.423Z,99347.09
2023-10-25T00:35:34.903Z,99355.91
2023-10-25T00:38:03.932Z,99347.38
2023-10-25T00:40:32.423Z,99347.94
2023-10-25T00:43:16.866Z,99340.38
2023-10-25T00:45:59.229Z,99351.41
2023-10-25T00:48:29.265Z,99356.16
2023-10-25T00:50:58.877Z,99347.31
2023-10-25T00:53:28.671Z,99347.69
2023-10-25T00:55:59.841Z,99343.59
2023-10-25T00:58:30.737Z,99346.50
2023-10-25T01:01:08.762Z,99346.25
2023-10-25T01:03:37.949Z,99342.22
2023-10-25T01:06:09.252Z,99347.34
2023-10-25T01:08:40.896Z,99341.22
2023-10-25T01:11:23.757Z,99334.41
2023-10-25T01:14:02.472Z,99334.84
2023-10-25T01:16:31.523Z,99334.28
2023-10-25T01:19:00.159Z,99334.78
2023-10-25T01:21:31.525Z,99333.06
2023-10-25T01:24:04.149Z,99334.66
2023-10-25T01:26:34.207Z,99328.72
2023-10-25T01:29:02.852Z,99334.66
2023-10-25T01:31:31.561Z,99325.63
2023-10-25T01:34:00.431Z,99319.69
2023-10-25T01:36:29.139Z,99320.78
2023-10-25T01:38:57.841Z,99323.59
2023-10-25T01:41:30.455Z,99326.03
2023-10-25T01:43:58.977Z,99327.44
2023-10-25T01:46:27.693Z,99319.25
2023-10-25T01:48:56.276Z,99316.44
2023-10-25T01:51:26.393Z,99310.63
2023-10-25T01:53:57.848Z,99311.03
2023-10-25T01:56:28.436Z,99314.66
2023-10-25T01:58:56.905Z,99306.75
2023-10-25T02:01:25.627Z,99306.03
2023-10-25T02:03:54.335Z,99298.78
2023-10-25T02:06:23.412Z,99295.78
2023-10-25T02:08:52.612Z,99293.88
2023-10-25T02:11:24.695Z,99291.16
2023-10-25T02:13:55.319Z,99281.78
2023-10-25T02:16:27.546Z,99277.25
2023-10-25T02:18:56.674Z,99279.00
2023-10-25T02:21:25.301Z,99279.16
2023-10-25T02:23:54.256Z,99281.22
2023-10-25T02:26:22.839Z,99279.75
2023-10-25T02:28:51.531Z,99270.81
2023-10-25T02:31:24.427Z,99272.03
2023-10-25T02:33:53.212Z,99269.41
2023-10-25T02:36:24.613Z,99271.44
2023-10-25T02:38:54.979Z,99265.44
2023-10-25T02:41:23.533Z,99262.00
2023-10-25T02:43:52.943Z,99262.81
2023-10-25T02:46:22.203Z,99262.22
2023-10-25T02:48:53.508Z,99267.53
2023-10-25T02:51:24.847Z,99262.81
2023-10-25T02:53:54.129Z,99258.47
2023-10-25T02:56:22.724Z,99254.47
2023-10-25T02:58:51.274Z,99258.19
2023-10-25T03:01:24.092Z,99256.88
2023-10-25T03:03:54.594Z,99241.78
2023-10-25T03:06:23.260Z,99243.31
2023-10-25T03:08:52.498Z,99236.34
2023-10-25T03:11:20.944Z,99232.66
2023-10-25T03:13:49.747Z,99239.41
2023-10-25T03:16:19.689Z,99231.88
2023-10-25T03:18:48.176Z,99235.19
2023-10-25T03:21:20.548Z,99217.88
2023-10-25T03:23:50.223Z,99225.63
2023-10-25T03:26:21.282Z,99222.41
2023-10-25T03:28:52.660Z,99228.44
2023-10-25T03:31:21.330Z,99227.41
2023-10-25T03:33:50.338Z,99224.81
2023-10-25T03:36:20.328Z,99224.09
2023-10-25T03:38:48.778Z,99214.13
2023-10-25T03:41:17.291Z,99207.91
2023-10-25T03:43:46.004Z,99211.53
2023-10-25T03:46:14.937Z,99202.28
2023-10-25T03:48:43.757Z,99210.22
2023-10-25T03:51:12.514Z,99190.72
2023-10-25T03:53:43.063Z,99193.84
2023-10-25T03:56:11.661Z,99186.31
2023-10-25T03:58:40.165Z,99181.38
2023-10-25T04:01:11.801Z,99187.50
2023-10-25T04:03:41.308Z,99182.69
2023-10-25T04:06:10.411Z,99189.22
2023-10-25T04:08:39.082Z,99184.38
2023-10-25T04:11:09.581Z,99184.38
2023-10-25T04:13:38.214Z,99187.00
2023-10-25T04:16:08.981Z,99186.00
2023-10-25T04:18:38.739Z,99187.59
2023-10-25T04:21:11.692Z,99174.84
2023-10-25T04:23:40.913Z,99172.44
2023-10-25T04:26:13.094Z,99170.72
2023-10-25T04:28:44.236Z,99165.81
2023-10-25T04:31:13.806Z,99171.31
2023-10-25T04:33:42.519Z,99178.84
2023-10-25T04:36:12.115Z,99168.53
2023-10-25T04:38:41.291Z,99161.03
2023-10-25T04:41:11.332Z,99165.47
2023-10-25T04:43:39.739Z,99158.91
2023-10-25T04:46:08.313Z,99162.25
2023-10-25T04:48:36.781Z,99164.50
2023-10-25T04:51:06.287Z,99158.41
2023-10-25T04:53:34.899Z,99157.81
2023-10-25T04:56:03.542Z,99156.09
2023-10-25T04:58:33.334Z,99161.22
2023-10-25T05:01:01.925Z,99160.63
2023-10-25T05:03:37.798Z,99153.38
2023-10-25T05:06:09.882Z,99155.16
2023-10-25T05:08:39.044Z,99151.34
2023-10-25T05:11:08.638Z,99152.81
2023-10-25T05:13:39.340Z,99149.47
2023-10-25T05:16:08.888Z,99144.91
2023-10-25T05:18:38.448Z,99147.75
2023-10-25T05:21:07.623Z,99139.97
2023-10-25T05:23:36.783Z,99137.75
2023-10-25T05:26:06.324Z,99145.09
2023-10-25T05:28:35.501Z,99141.34
2023-10-25T05:31:06.773Z,99133.97
2023-10-25T05:33:35.702Z,99135.78
2023-10-25T05:36:04.857Z,99132.28
2023-10-25T05:38:34.146Z,99128.81
2023-10-25T05:41:03.459Z,99138.38
2023-10-25T05:43:38.438Z,99132.81
2023-10-25T05:46:08.682Z,99128.19
2023-10-25T05:48:38.029Z,99132.19
2023-10-25T05:51:07.765Z,99137.81
2023-10-25T05:53:36.711Z,99133.50
2023-10-25T05:56:06.311Z,99134.47
2023-10-25T05:58:35.456Z,99140.41
2023-10-25T06:01:09.786Z,99135.94
2023-10-25T06:03:43.794Z,99133.06
2023-10-25T06:06:14.476Z,99122.69
2023-10-25T06:08:43.624Z,99122.53
2023-10-25T06:11:13.289Z,99122.56
2023-10-25T06:13:42.429Z,99120.97
2023-10-25T06:16:12.361Z,99113.59
2023-10-25T06:18:42.546Z,99113.78
2023-10-25T06:21:12.308Z,99114.28
2023-10-25T06:23:40.919Z,99112.19
2023-10-25T06:26:09.630Z,99093.31
2023-10-25T06:28:38.553Z,99102.13
2023-10-25T06:31:07.354Z,99097.81
2023-10-25T06:33:35.965Z,99094.13
2023-10-25T06:36:16.226Z,99090.81
2023-10-25T06:38:45.333Z,99084.53
2023-10-25T06:41:18.818Z,99083.09
2023-10-25T06:43:47.847Z,99081.66
2023-10-25T06:46:17.529Z,99078.97
2023-10-25T06:48:46.976Z,99066.00
2023-10-25T06:51:17.638Z,99069.97
2023-10-25T06:53:46.606Z,99063.75
2023-10-25T06:56:16.419Z,99063.91
2023-10-25T06:58:45.408Z,99054.63
2023-10-25T07:01:14.955Z,99053.78
2023-10-25T07:03:47.714Z,99054.59
2023-10-25T07:06:18.993Z,99050.25
2023-10-25T07:08:49.677Z,99043.00
2023-10-25T07:11:19.350Z,99048.69
2023-10-25T07:13:48.661Z,99046.22
2023-10-25T07:16:17.638Z,99033.16
2023-10-25T07:18:50.291Z,99028.13
2023-10-25T07:21:20.232Z,99031.94
2023-10-25T07:23:48.690Z,99031.34
2023-10-25T07:26:17.140Z,99027.91
2023-10-25T07:28:45.617Z,99025.34
2023-10-25T07:31:14.254Z,99029.13
2023-10-25T07:33:43.001Z,99021.13
2023-10-25T07:36:12.947Z,99019.63
2023-10-25T07:38:42.867Z,99014.22
2023-10-25T07:41:11.488Z,99008.72
2023-10-25T07:43:40.828Z,99002.50
2023-10-25T07:46:10.261Z,98999.28
2023-10-25T07:48:39.273Z,98989.16
2023-10-25T07:51:07.948Z,98986.69
2023-10-25T07:53:36.419Z,98980.84
2023-10-25T07:58:52.726Z,98972.16
2023-10-25T08:01:21.512Z,98974.84
2023-10-25T08:03:50.029Z,98970.16
2023-10-25T08:06:18.722Z,98954.78
2023-10-25T08:08:50.046Z,98955.53
2023-10-25T08:11:20.187Z,98956.66
2023-10-25T08:13:48.783Z,98954.94
2023-10-25T08:16:17.515Z,98953.06
2023-10-25T08:18:46.008Z,98939.63
2023-10-25T08:21:15.806Z,98941.56
2023-10-25T08:23:46.496Z,98937.47
2023-10-25T08:26:15.248Z,98949.31
2023-10-25T08:28:50.644Z,98940.78
2023-10-25T08:31:20.368Z,98939.53
2023-10-25T08:33:48.997Z,98933.38
2023-10-25T08:36:17.430Z,98931.78
2023-10-25T08:38:45.958Z,98930.06
2023-10-25T08:41:16.559Z,98929.31
2023-10-25T08:43:45.179Z,98929.09
2023-10-25T08:46:15.789Z,98929.31
2023-10-25T08:48:44.671Z,98934.53
2023-10-25T08:51:16.069Z,98929.09
2023-10-25T08:53:44.795Z,98928.63
2023-10-25T08:56:13.816Z,98925.25
2023-10-25T08:58:42.304Z,98919.50
2023-10-25T09:01:10.925Z,98919.19
2023-10-25T09:03:42.818Z,98909.41
2023-10-25T09:06:13.939Z,98913.59
2023-10-25T09:08:44.820Z,98913.25
2023-10-25T09:11:13.986Z,98900.03
2023-10-25T09:13:43.389Z,98898.63
2023-10-25T09:16:13.971Z,98895.09
2023-10-25T09:18:44.258Z,98885.47
2023-10-25T09:21:18.926Z,98881.31
2023-10-25T09:24:00.681Z,98887.63
2023-10-25T09:26:35.150Z,98884.78
2023-10-25T09:29:08.680Z,98880.97
2023-10-25T09:31:41.087Z,98874.50
2023-10-25T09:34:11.153Z,98863.97
2023-10-25T09:36:46.980Z,98870.69
2023-10-25T09:39:18.172Z,98871.06
2023-10-25T09:41:53.709Z,98866.47
2023-10-25T09:44:29.734Z,98859.84
2023-10-25T09:47:01.165Z,98845.06
2023-10-25T09:49:36.028Z,98842.13
2023-10-25T09:52:16.143Z,98830.63
2023-10-25T09:54:54.733Z,98824.97
2023-10-25T09:57:26.178Z,98816.56
2023-10-25T09:59:59.252Z,98813.22
2023-10-25T10:02:41.560Z,98808.44
2023-10-25T10:05:20.945Z,98815.59
2023-10-25T10:08:02.100Z,98813.72
2023-10-25T10:10:36.941Z,98816.22
2023-10-25T10:13:17.883Z,98802.78
2023-10-25T10:16:04.049Z,98796.41
2023-10-25T10:18:34.734Z,98796.59
2023-10-25T10:21:07.275Z,98797.00
2023-10-25T10:23:40.831Z,98787.53
2023-10-25T10:26:13.051Z,98775.25
2023-10-25T10:28:48.087Z,98776.22
2023-10-25T10:31:19.015Z,98766.88
2023-10-25T10:33:51.623Z,98768.38
2023-10-25T10:36:31.724Z,98755.53
2023-10-25T10:39:16.172Z,98752.28
2023-10-25T10:41:46.499Z,98742.22
2023-10-25T10:44:18.111Z,98745.16
2023-10-25T10:47:08.990Z,98758.47
2023-10-25T10:49:42.465Z,98741.09
2023-10-25T10:52:12.477Z,98743.84
2023-10-25T10:54:41.045Z,98747.44
2023-10-25T10:57:15.915Z,98735.53
2023-10-25T10:59:46.656Z,98732.13
2023-10-25T11:02:15.598Z,98719.66
2023-10-25T11:04:45.351Z,98717.84
2023-10-25T11:07:15.472Z,98713.22
2023-10-25T11:09:44.484Z,98711.38
2023-10-25T11:12:15.800Z,98704.41
2023-10-25T11:14:46.057Z,98706.34
2023-10-25T11:17:14.868Z,98701.00
2023-10-25T11:19:45.996Z,98698.47
2023-10-25T11:22:16.434Z,98693.03
2023-10-25T11:24:48.677Z,98690.06
2023-10-25T11:27:18.108Z,98689.06
2023-10-25T11:29:49.618Z,98679.72
2023-10-25T11:32:18.361Z,98677.34
2023-10-25T11:34:47.364Z,98672.56
2023-10-25T11:37:17.200Z,98655.22
2023-10-25T11:40:02.726Z,98649.91
2023-10-25T11:42:35.000Z,98642.03
2023-10-25T11:45:05.463Z,98639.78
2023-10-25T11:47:34.915Z,98627.94
2023-10-25T11:50:04.668Z,98626.69
2023-10-25T11:52:34.887Z,98624.06
2023-10-25T11:55:04.958Z,98617.22
2023-10-25T11:57:35.012Z,98624.75
2023-10-25T12:00:04.978Z,98613.81
2023-10-25T12:02:33.790Z,98607.69
2023-10-25T12:05:02.511Z,98597.44
2023-10-25T12:07:33.126Z,98604.38
2023-10-25T12:10:12.767Z,98589.81
2023-10-25T12:12:41.320Z,98587.88
2023-10-25T12:15:10.756Z,98576.94
2023-10-25T12:17:39.334Z,98581.72
2023-10-25T12:20:28.964Z,98576.03
2023-10-25T12:22:58.334Z,98572.16
2023-10-25T12:25:29.004Z,98569.22
2023-10-25T12:27:57.700Z,98566.25
2023-10-25T12:30:26.138Z,98551.34
2023-10-25T12:32:56.445Z,98544.97
2023-10-25T12:35:25.881Z,98551.69
2023-10-25T12:37:54.452Z,98543.72
2023-10-25T12:40:22.922Z,98543.94
2023-10-25T12:42:55.274Z,98533.63
2023-10-25T12:45:25.087Z,98538.63
2023-10-25T12:47:54.054Z,98527.78
2023-10-25T12:50:23.517Z,98528.50
2023-10-25T12:52:52.125Z,98535.78
2023-10-25T12:55:20.861Z,98527.16
2023-10-25T12:57:53.120Z,98518.63
2023-10-25T13:00:22.557Z,98516.44
2023-10-25T13:02:51.145Z,98506.00
2023-10-25T13:05:20.403Z,98503.25
2023-10-25T13:07:49.000Z,98504.28
2023-10-25T13:10:17.838Z,98503.38
2023-10-25T13:12:51.162Z,98491.56
2023-10-25T13:15:21.211Z,98492.00
2023-10-25T13:17:49.928Z,98485.28
2023-10-25T13:20:19.109Z,98478.00
2023-10-25T13:22:47.824Z,98488.03
2023-10-25T13:25:16.351Z,98480.75
2023-10-25T13:27:45.443Z,98479.59
2023-10-25T13:30:14.303Z,98473.47
2023-10-25T13:32:44.593Z,98467.56
2023-10-25T13:35:13.148Z,98464.59
2023-10-25T13:37:42.011Z,98463.09
2023-10-25T13:40:12.154Z,98460.94
2023-10-25T13:42:40.684Z,98455.47
2023-10-25T13:45:10.567Z,98453.88
2023-10-25T13:47:40.626Z,98451.44
2023-10-25T13:50:11.511Z,98447.91
2023-10-25T13:52:40.160Z,98441.75
2023-10-25T13:55:09.989Z,98439.47
2023-10-25T13:57:38.737Z,98435.16
2023-10-25T14:00:11.550Z,98433.13
2023-10-25T14:02:41.614Z,98426.06
2023-10-25T14:05:12.749Z,98426.06
2023-10-25T14:07:41.761Z,98421.59
2023-10-25T14:10:11.723Z,98425.13
2023-10-25T14:12:40.335Z,98428.56
2023-10-25T14:15:09.566Z,98416.84
2023-10-25T14:17:38.248Z,98412.88
2023-10-25T14:20:08.156Z,98409.53
2023-10-25T14:22:38.017Z,98406.72
2023-10-25T14:25:08.046Z,98409.69
2023-10-25T14:27:36.893Z,98402.44
2023-10-25T14:30:06.679Z,98391.53
2023-10-25T14:32:35.246Z,98393.13
2023-10-25T14:35:04.342Z,98384.94
2023-10-25T14:37:33.167Z,98383.44
2023-10-25T14:40:06.102Z,98395.06
2023-10-25T14:42:34.966Z,98377.88
2023-10-25T14:45:04.075Z,98369.94
2023-10-25T14:47:34.018Z,98372.91
2023-10-25T14:50:02.588Z,98361.75
2023-10-25T14:52:31.315Z,98358.66
2023-10-25T14:54:59.955Z,98361.75
2023-10-25T14:57:29.790Z,98363.13
2023-10-25T15:00:06.189Z,98359.25
2023-10-25T15:02:34.860Z,98358.25
2023-10-25T15:05:03.682Z,98353.13
2023-10-25T15:07:34.831Z,98359.16
2023-10-25T15:10:04.810Z,98347.78
2023-10-25T15:12:36.531Z,98355.19
2023-10-25T15:15:05.718Z,98349.72
2023-10-25T15:17:34.303Z,98350.41
2023-10-25T15:20:03.498Z,98334.81
2023-10-25T15:22:32.329Z,98339.00
2023-10-25T15:25:00.918Z,98332.66
2023-10-25T15:27:29.889Z,98336.16
2023-10-25T15:30:02.271Z,98326.28
2023-10-25T15:32:33.454Z,98327.19
2023-10-25T15:35:05.474Z,98324.00
2023-10-25T15:37:33.918Z,98330.13
2023-10-25T15:42:35.560Z,98316.47
2023-10-25T15:45:06.518Z,98313.28
2023-10-25T15:47:35.943Z,98311.69
2023-10-25T15:50:05.106Z,98312.50
2023-10-25T15:52:33.812Z,98312.41
2023-10-25T15:55:03.092Z,98308.97
2023-10-25T15:57:31.596Z,98305.44
2023-10-25T16:00:00.402Z,98301.22
2023-10-25T16:02:30.519Z,98307.38
2023-10-25T16:04:59.182Z,98300.34
2023-10-25T16:07:27.731Z,98294.44
2023-10-25T16:09:56.283Z,98296.22
2023-10-25T16:12:32.014Z,98291.44
2023-10-25T16:15:03.345Z,98283.81
2023-10-25T16:17:33.392Z,98294.97
2023-10-25T16:20:02.029Z,98284.66
2023-10-25T16:22:32.073Z,98287.03
2023-10-25T16:25:01.244Z,98280.34
2023-10-25T16:27:30.506Z,98286.69
2023-10-25T16:30:00.723Z,98281.22
2023-10-25T16:32:29.529Z,98280.28
2023-10-25T16:34:59.512Z,98275.63
2023-10-25T16:37:28.068Z,98273.59
2023-10-25T16:39:57.257Z,98278.69
2023-10-25T16:42:26.557Z,98279.84
2023-10-25T16:44:55.355Z,98277.44
2023-10-25T16:47:26.971Z,98273.22
2023-10-25T16:49:55.774Z,98276.22
2023-10-25T16:52:25.700Z,98268.47
2023-10-25T16:54:54.590Z,98272.44
2023-10-25T16:57:23.493Z,98274.47
2023-10-25T16:59:52.124Z,98270.50
2023-10-25T17:02:20.821Z,98265.75
2023-10-25T17:04:52.361Z,98263.34
2023-10-25T17:07:21.176Z,98270.06
2023-10-25T17:09:51.574Z,98275.63
2023-10-25T17:12:20.980Z,98270.31
2023-10-25T17:14:50.757Z,98271.44
2023-10-25T17:17:19.638Z,98273.94
2023-10-25T17:19:48.520Z,98275.06
2023-10-25T17:22:17.196Z,98268.72
2023-10-25T17:24:45.853Z,98278.06
2023-10-25T17:27:15.713Z,98270.22
2023-10-25T17:29:45.142Z,98262.72
2023-10-25T17:32:14.537Z,98264.66
2023-10-25T17:34:43.570Z,98264.66
2023-10-25T17:37:12.502Z,98270.91
2023-10-25T17:39:42.848Z,98270.56
2023-10-25T17:42:11.816Z,98256.22
2023-10-25T17:44:43.949Z,98266.34
2023-10-25T17:47:12.929Z,98264.94
2023-10-25T17:49:41.803Z,98262.56
2023-10-25T17:52:10.827Z,98260.09
2023-10-25T17:54:39.374Z,98263.25
2023-10-25T17:57:11.124Z,98258.50
2023-10-25T17:59:41.590Z,98261.41
2023-10-25T18:02:10.205Z,98261.06
2023-10-25T18:04:39.545Z,98258.78
2023-10-25T18:07:08.974Z,98255.00
2023-10-25T18:09:37.486Z,98255.16
2023-10-25T18:12:06.606Z,98254.56
2023-10-25T18:14:37.138Z,98254.13
2023-10-25T18:17:07.824Z,98255.63
2023-10-25T18:19:36.328Z,98258.88
2023-10-25T18:22:05.868Z,98252.53
2023-10-25T18:24:34.879Z,98254.03
2023-10-25T18:27:03.538Z,98252.28
2023-10-25T18:29:32.126Z,98256.31
2023-10-25T18:32:26.913Z,98262.91
2023-10-25T18:34:52.626Z,98255.63
2023-10-25T18:37:21.315Z,98257.09
2023-10-25T18:39:49.842Z,98249.63
2023-10-25T18:42:18.287Z,98255.06
2023-10-25T18:44:46.881Z,98247.78
2023-10-25T18:47:16.053Z,98252.44
2023-10-25T18:49:46.442Z,98247.31
2023-10-25T18:52:16.331Z,98246.38
2023-10-25T18:54:44.993Z,98246.47
2023-10-25T18:57:13.677Z,98247.25
2023-10-25T18:59:42.242Z,98249.56
2023-10-25T19:02:10.941Z,98251.94
2023-10-25T19:06:28.787Z,98249.56
2023-10-25T19:07:29.234Z,98259.69
2023-10-25T19:09:57.819Z,98259.44
2023-10-25T19:12:46.403Z,98255.91
2023-10-25T19:15:15.157Z,98259.59
2023-10-25T19:17:43.964Z,98253.31
2023-10-25T19:20:13.651Z,98258.34
2023-10-25T19:22:43.654Z,98260.81
2023-10-25T19:25:12.310Z,98264.69
2023-10-25T19:27:41.087Z,98260.81
2023-10-25T19:30:21.406Z,98258.34
2023-10-25T19:32:50.002Z,98264.59
2023-10-25T19:35:20.809Z,98264.69
2023-10-25T19:37:50.700Z,98268.56
2023-10-25T19:40:20.257Z,98264.59
2023-10-25T19:42:51.138Z,98265.75
2023-10-25T19:45:19.771Z,98253.22
2023-10-25T19:47:49.514Z,98266.19
2023-10-25T19:50:18.525Z,98263.56
2023-10-25T19:52:47.061Z,98268.56
2023-10-25T19:55:17.126Z,98271.75
2023-10-25T19:57:45.645Z,98263.47
2023-10-25T20:00:15.900Z,98273.78
2023-10-25T20:02:47.799Z,98272.63
2023-10-25T20:05:16.545Z,98271.03
2023-10-25T20:07:45.115Z,98273.69
2023-10-25T20:10:13.959Z,98280.72
2023-10-25T20:12:44.505Z,98275.19
2023-10-25T20:15:13.289Z,98280.19
2023-10-25T20:17:44.056Z,98282.56
2023-10-25T20:20:13.894Z,98282.75
2023-10-25T20:22:42.679Z,98288.56
2023-10-25T20:25:11.507Z,98286.53
2023-10-25T20:27:40.631Z,98292.00
2023-10-25T20:30:12.080Z,98297.47
2023-10-25T20:32:41.119Z,98300.19
2023-10-25T20:35:10.680Z,98299.06
2023-10-25T20:37:39.395Z,98301.34
2023-10-25T20:40:09.271Z,98302.84
2023-10-25T20:42:37.877Z,98303.97
2023-10-25T20:45:07.544Z,98303.63
2023-10-25T20:47:37.483Z,98303.19
2023-10-25T20:50:09.383Z,98309.78
2023-10-25T20:52:38.357Z,98316.84
2023-10-25T20:55:07.832Z,98310.94
2023-10-25T20:57:37.140Z,98319.13
2023-10-25T21:00:08.249Z,98316.03
2023-10-25T21:02:38.457Z,98325.38
2023-10-25T21:05:07.878Z,98330.94
2023-10-25T21:07:36.477Z,98343.44
2023-10-25T21:10:05.453Z,98341.84
2023-10-25T21:12:33.972Z,98349.34
2023-10-25T21:15:02.599Z,98347.78
2023-10-25T21:17:31.078Z,98348.91
2023-10-25T21:20:00.953Z,98353.22
2023-10-25T21:22:29.961Z,98352.09
2023-10-25T21:24:58.446Z,98352.19
2023-10-25T21:27:27.232Z,98353.31
2023-10-25T21:29:57.318Z,98358.34
2023-10-25T21:32:26.199Z,98359.94
2023-10-25T21:34:54.797Z,98364.59
2023-10-25T21:37:24.971Z,98363.56
2023-10-25T21:39:53.952Z,98371.75
2023-10-25T21:42:22.479Z,98371.66
2023-10-25T21:44:51.448Z,98374.72
2023-10-25T21:47:19.983Z,98372.25
2023-10-25T21:49:51.765Z,98365.53
2023-10-25T21:52:20.391Z,98371.91
2023-10-25T21:54:50.447Z,98371.44
2023-10-25T21:57:19.168Z,98374.63
2023-10-25T21:59:54.655Z,98377.72
2023-10-25T22:02:27.566Z,98380.09
2023-10-25T22:04:56.490Z,98378.59
2023-10-25T22:07:28.158Z,98382.94
2023-10-25T22:10:06.126Z,98382.56
2023-10-25T22:12:38.982Z,98382.94
2023-10-25T22:15:11.321Z,98386.69
2023-10-25T22:17:42.110Z,98384.84
2023-10-25T22:20:11.485Z,98394.19
2023-10-25T22:22:42.484Z,98394.88
2023-10-25T22:25:17.793Z,98400.44
2023-10-25T22:27:49.052Z,98390.91
2023-10-25T22:30:27.062Z,98399.44
2023-10-25T22:33:01.368Z,98400.34
2023-10-25T22:35:30.398Z,98398.75
2023-10-25T22:37:59.113Z,98406.72
2023-10-25T22:40:28.887Z,98407.84
2023-10-25T22:43:03.457Z,98416.84
2023-10-25T22:45:34.262Z,98404.44
2023-10-25T22:48:03.105Z,98418.16
2023-10-25T22:50:32.790Z,98409.50
2023-10-25T22:53:01.206Z,98407.91
2023-10-25T22:55:32.407Z,98418.03
2023-10-25T22:58:03.208Z,98419.53
2023-10-25T23:00:33.994Z,98419.06
2023-10-25T23:03:05.058Z,98416.13
2023-10-25T23:05:35.892Z,98429.78
2023-10-25T23:08:06.824Z,98433.19
2023-10-25T23:10:39.548Z,98432.50
2023-10-25T23:13:14.659Z,98425.69
2023-10-25T23:15:46.314Z,98438.09
2023-10-25T23:18:17.065Z,98436.16
2023-10-25T23:20:52.516Z,98436.84
2023-10-25T23:23:30.895Z,98448.56
2023-10-25T23:26:09.600Z,98442.97
2023-10-25T23:28:40.922Z,98454.34
2023-10-25T23:31:18.831Z,98461.41
2023-10-25T23:33:47.478Z,98461.75
2023-10-25T23:36:16.094Z,98469.16
2023-10-25T23:38:44.827Z,98475.28
2023-10-25T23:41:22.162Z,98475.28
2023-10-25T23:43:50.770Z,98475.28
2023-10-25T23:46:19.315Z,98469.16
2023-10-25T23:48:48.080Z,98466.53
2023-10-25T23:51:21.462Z,98477.69
2023-10-25T23:53:50.149Z,98467.78
2023-10-25T23:56:34.041Z,98466.41
2023-10-25T23:59:06.679Z,98477.44
